Time;durP1;ratioP1;P1;durP2;ratioP2;P2;SDS_P1;SDS_P2;PMS_P1;PMS_P2;Temp;Humidity;BMP_temperature;BMP_pressure;BME280_temperature;BME280_humidity;BME280_pressure;Samples;Min_cycle;Max_cycle;Signal;HPM_P1;HPM_P2
2021/09/03 00:00:23;;;;;;;18.65;15.32;;;13.70;99.90;;;;;;2097376;28;20028;-68
2021/09/03 00:01:24;;;;;;;18.60;16.10;;;13.70;99.90;;;;;;2097522;28;20029;-69
2021/09/03 00:02:25;;;;;;;19.40;16.00;;;13.70;99.90;;;;;;2097801;28;20036;-70
2021/09/03 00:03:25;;;;;;;18.48;15.43;;;13.60;99.90;;;;;;2097757;28;20078;-68
2021/09/03 00:04:26;;;;;;;17.70;15.32;;;13.60;99.90;;;;;;2097356;28;20561;-69
2021/09/03 00:05:27;;;;;;;20.42;16.08;;;13.60;99.90;;;;;;2088580;28;20136;-67
2021/09/03 00:06:27;;;;;;;20.42;16.33;;;13.60;99.90;;;;;;2088650;28;20021;-68
2021/09/03 00:07:28;;;;;;;20.08;15.30;;;13.50;99.90;;;;;;2097570;28;20032;-68
2021/09/03 00:08:29;;;;;;;19.92;15.90;;;13.50;99.90;;;;;;2097087;28;20029;-68
2021/09/03 00:09:29;;;;;;;20.30;16.20;;;13.60;99.90;;;;;;2097646;28;20091;-69
2021/09/03 00:10:30;;;;;;;21.00;16.23;;;13.60;99.90;;;;;;2097309;28;20100;-68
2021/09/03 00:11:31;;;;;;;19.48;16.25;;;13.60;99.90;;;;;;2097543;28;20555;-68
2021/09/03 00:12:31;;;;;;;18.92;15.70;;;13.60;99.90;;;;;;2097504;28;20404;-69
2021/09/03 00:13:32;;;;;;;18.58;15.60;;;13.50;99.90;;;;;;2097518;28;20131;-68
2021/09/03 00:14:34;;;;;;;19.55;15.95;;;13.50;99.90;;;;;;2097458;28;20107;-68
2021/09/03 00:15:34;;;;;;;18.65;15.50;;;13.50;99.90;;;;;;2097479;28;20055;-68
2021/09/03 00:16:37;;;;;;;19.30;15.48;;;13.50;99.90;;;;;;2097411;28;20064;-68
2021/09/03 00:17:38;;;;;;;19.30;16.23;;;13.50;99.90;;;;;;2097477;28;20028;-68
2021/09/03 00:18:39;;;;;;;22.75;16.65;;;13.50;99.90;;;;;;2087957;28;20029;-68
2021/09/03 00:19:40;;;;;;;19.60;16.08;;;13.50;99.90;;;;;;2088626;28;20035;-68
2021/09/03 00:20:40;;;;;;;20.05;15.70;;;13.50;99.90;;;;;;2088259;28;20124;-68
2021/09/03 00:21:41;;;;;;;19.88;15.88;;;13.50;99.90;;;;;;2088564;28;20037;-68
2021/09/03 00:22:42;;;;;;;17.92;15.68;;;13.50;99.90;;;;;;2097506;28;20366;-68
2021/09/03 00:23:43;;;;;;;19.20;15.23;;;13.50;99.90;;;;;;2097374;28;20044;-68
2021/09/03 00:24:44;;;;;;;19.77;15.98;;;13.40;99.90;;;;;;2097441;28;20017;-68
2021/09/03 00:25:45;;;;;;;19.25;15.50;;;13.50;99.90;;;;;;2097381;28;20078;-69
2021/09/03 00:26:46;;;;;;;18.08;15.13;;;13.50;99.90;;;;;;2097448;28;20032;-69
2021/09/03 00:27:47;;;;;;;21.38;16.17;;;13.40;99.90;;;;;;2096972;28;20147;-69
2021/09/03 00:28:48;;;;;;;20.60;16.00;;;13.40;99.90;;;;;;2097447;28;20048;-69
2021/09/03 00:29:48;;;;;;;20.67;15.82;;;13.40;99.90;;;;;;2097363;28;20039;-69
2021/09/03 00:30:49;;;;;;;20.67;15.60;;;13.40;99.90;;;;;;2096821;28;20139;-69
2021/09/03 00:31:50;;;;;;;18.65;16.05;;;13.40;99.90;;;;;;2097354;28;20017;-69
2021/09/03 00:32:50;;;;;;;19.98;15.43;;;13.40;99.90;;;;;;2096423;28;20028;-69
2021/09/03 00:33:51;;;;;;;17.95;15.18;;;13.40;99.90;;;;;;2097355;28;20625;-69
2021/09/03 00:34:51;;;;;;;18.13;15.00;;;13.40;99.90;;;;;;2096932;28;20017;-69
2021/09/03 00:35:52;;;;;;;20.05;15.32;;;13.40;99.90;;;;;;2096634;28;20528;-69
2021/09/03 00:36:52;;;;;;;19.08;15.23;;;13.40;99.90;;;;;;2096506;28;20037;-69
2021/09/03 00:37:53;;;;;;;19.65;15.65;;;13.40;99.90;;;;;;2096453;28;20024;-69
2021/09/03 00:38:54;;;;;;;19.00;15.15;;;13.40;99.90;;;;;;2088366;28;20053;-69
2021/09/03 00:39:54;;;;;;;19.70;15.90;;;13.30;99.90;;;;;;2088364;28;20032;-69
2021/09/03 00:40:55;;;;;;;18.90;15.50;;;13.30;99.90;;;;;;2096986;28;20027;-69
2021/09/03 00:41:55;;;;;;;19.92;15.60;;;13.30;99.90;;;;;;2097198;28;20513;-69
2021/09/03 00:42:56;;;;;;;17.95;15.18;;;13.30;99.90;;;;;;2097393;28;20815;-69
2021/09/03 00:43:57;;;;;;;19.92;14.80;;;13.30;99.90;;;;;;2097395;28;20111;-69
2021/09/03 00:44:57;;;;;;;18.92;15.02;;;13.30;99.90;;;;;;2097315;28;20073;-69
2021/09/03 00:45:58;;;;;;;20.10;15.90;;;13.30;99.90;;;;;;2097178;28;20028;-70
2021/09/03 00:46:59;;;;;;;18.38;14.85;;;13.30;99.90;;;;;;2088407;28;20059;-69
2021/09/03 00:47:59;;;;;;;21.15;15.90;;;13.30;99.90;;;;;;2087982;28;20709;-70
2021/09/03 00:49:00;;;;;;;19.00;15.35;;;13.30;99.90;;;;;;2097257;28;20035;-70
2021/09/03 00:50:00;;;;;;;18.67;15.48;;;13.20;99.90;;;;;;2088222;28;20032;-70
2021/09/03 00:51:01;;;;;;;20.25;15.80;;;13.30;99.90;;;;;;2088105;28;20575;-70
2021/09/03 00:52:04;;;;;;;19.92;15.10;;;13.30;99.90;;;;;;2097289;28;20025;-69
2021/09/03 00:53:05;;;;;;;21.08;15.82;;;13.20;99.90;;;;;;2097271;28;20131;-69
2021/09/03 00:54:07;;;;;;;19.88;16.25;;;13.20;99.90;;;;;;2097210;28;20034;-70
2021/09/03 00:55:09;;;;;;;17.50;15.18;;;13.20;99.90;;;;;;2097158;28;20435;-69
2021/09/03 00:56:09;;;;;;;19.90;15.40;;;13.20;99.90;;;;;;2088200;28;20033;-69
2021/09/03 00:57:10;;;;;;;18.42;15.45;;;13.20;99.90;;;;;;2088456;28;20052;-69
2021/09/03 00:58:11;;;;;;;18.65;15.45;;;13.20;99.90;;;;;;2088125;28;20040;-69
2021/09/03 00:59:11;;;;;;;19.63;14.82;;;13.20;99.90;;;;;;2097210;28;20381;-69
2021/09/03 01:00:12;;;;;;;18.38;15.32;;;13.20;99.90;;;;;;2096999;28;20036;-68
2021/09/03 01:01:13;;;;;;;19.52;15.70;;;13.20;99.90;;;;;;2097029;28;20247;-68
2021/09/03 01:02:13;;;;;;;18.65;15.30;;;13.20;99.90;;;;;;2096965;28;20039;-68
2021/09/03 01:03:15;;;;;;;19.52;15.95;;;13.20;99.90;;;;;;2097147;28;20764;-68
2021/09/03 01:04:16;;;;;;;20.30;15.68;;;13.20;99.90;;;;;;2088212;28;20083;-68
2021/09/03 01:05:16;;;;;;;19.00;15.82;;;13.20;99.90;;;;;;2088200;28;20099;-68
2021/09/03 01:06:18;;;;;;;20.25;15.63;;;13.20;99.90;;;;;;2097033;28;20036;-68
2021/09/03 01:07:19;;;;;;;20.05;15.23;;;13.20;99.90;;;;;;2097025;28;20104;-68
2021/09/03 01:08:19;;;;;;;18.25;15.10;;;13.10;99.90;;;;;;2096500;28;20476;-68
2021/09/03 01:09:20;;;;;;;19.55;16.10;;;13.10;99.90;;;;;;2097062;28;20098;-68
2021/09/03 01:10:22;;;;;;;18.45;15.50;;;13.10;99.90;;;;;;2096823;28;20035;-68
2021/09/03 01:11:23;;;;;;;18.73;14.85;;;13.10;99.90;;;;;;2097029;28;20024;-68
2021/09/03 01:12:23;;;;;;;19.45;15.57;;;13.10;99.90;;;;;;2097014;28;20028;-69
2021/09/03 01:13:25;;;;;;;19.77;15.63;;;13.10;99.90;;;;;;2088096;28;20527;-69
2021/09/03 01:14:25;;;;;;;19.50;14.93;;;13.10;99.90;;;;;;2079928;28;20053;-69
2021/09/03 01:15:26;;;;;;;19.85;15.88;;;13.10;99.90;;;;;;2088257;28;20457;-69
2021/09/03 01:16:27;;;;;;;19.83;16.08;;;13.10;99.90;;;;;;2097463;28;20025;-68
2021/09/03 01:17:27;;;;;;;17.98;15.18;;;13.10;99.90;;;;;;2097324;28;20485;-68
2021/09/03 01:18:28;;;;;;;19.55;16.02;;;13.10;99.90;;;;;;2096693;28;20055;-68
2021/09/03 01:19:29;;;;;;;19.88;16.13;;;13.10;99.90;;;;;;2097090;28;20039;-68
2021/09/03 01:20:29;;;;;;;20.15;15.95;;;13.10;99.90;;;;;;2096701;28;20028;-68
2021/09/03 01:21:30;;;;;;;19.85;15.98;;;13.00;99.90;;;;;;2096918;28;20044;-68
2021/09/03 01:22:31;;;;;;;20.20;15.60;;;13.10;99.90;;;;;;2097021;28;20036;-68
2021/09/03 01:23:31;;;;;;;19.08;16.05;;;13.00;99.90;;;;;;2088097;28;20444;-69
2021/09/03 01:24:32;;;;;;;22.70;16.40;;;13.00;99.90;;;;;;2080061;28;20022;-69
2021/09/03 01:25:32;;;;;;;19.90;16.42;;;13.00;99.90;;;;;;2088339;28;20144;-69
2021/09/03 01:26:33;;;;;;;20.48;16.55;;;13.00;99.90;;;;;;2097164;28;20043;-69
2021/09/03 01:27:34;;;;;;;23.20;17.23;;;13.00;99.90;;;;;;2096982;28;20033;-69
2021/09/03 01:28:34;;;;;;;22.05;16.58;;;13.00;99.90;;;;;;2087514;28;20074;-69
2021/09/03 01:29:35;;;;;;;20.80;16.52;;;13.00;99.90;;;;;;2088177;28;20092;-69
2021/09/03 01:30:36;;;;;;;20.83;16.95;;;13.00;99.90;;;;;;2096695;28;20025;-69
2021/09/03 01:31:36;;;;;;;19.80;16.23;;;13.00;99.90;;;;;;2096914;28;20024;-69
2021/09/03 01:32:38;;;;;;;21.35;16.88;;;12.90;99.90;;;;;;2097000;28;20035;-69
2021/09/03 01:33:38;;;;;;;21.15;16.52;;;12.90;99.90;;;;;;2096875;28;20040;-69
2021/09/03 01:34:39;;;;;;;20.38;15.85;;;12.90;99.90;;;;;;2096888;28;20070;-69
2021/09/03 01:35:39;;;;;;;21.90;16.63;;;12.90;99.90;;;;;;2079771;28;20032;-70
2021/09/03 01:36:40;;;;;;;20.10;16.25;;;12.90;99.90;;;;;;2079807;28;20036;-69
2021/09/03 01:37:41;;;;;;;24.25;17.48;;;12.90;99.90;;;;;;2096965;28;20102;-70
2021/09/03 01:38:42;;;;;;;20.23;16.40;;;12.90;99.90;;;;;;2096445;28;20063;-70
2021/09/03 01:39:43;;;;;;;22.25;16.65;;;12.90;99.90;;;;;;2096903;28;20407;-69
2021/09/03 01:40:44;;;;;;;20.75;16.65;;;12.80;99.90;;;;;;2096607;28;20032;-69
2021/09/03 01:41:44;;;;;;;19.70;15.75;;;12.80;99.90;;;;;;2096786;28;20032;-70
2021/09/03 01:42:45;;;;;;;19.63;15.95;;;12.90;99.90;;;;;;2097016;28;20077;-70
2021/09/03 01:43:45;;;;;;;21.15;16.42;;;12.80;99.90;;;;;;2096973;28;20028;-69
2021/09/03 01:44:46;;;;;;;20.25;16.50;;;12.80;99.90;;;;;;2096638;28;20044;-69
2021/09/03 01:45:47;;;;;;;19.90;16.88;;;12.80;99.90;;;;;;2096871;28;20124;-69
2021/09/03 01:46:47;;;;;;;21.45;16.27;;;12.80;99.90;;;;;;2096982;28;20078;-69
2021/09/03 01:47:48;;;;;;;20.17;16.30;;;12.80;99.90;;;;;;2096479;28;20561;-69
2021/09/03 01:48:49;;;;;;;19.52;15.57;;;12.80;99.90;;;;;;2096897;28;20166;-69
2021/09/03 01:49:49;;;;;;;19.98;15.82;;;12.80;99.90;;;;;;2096950;28;20037;-69
2021/09/03 01:50:50;;;;;;;19.08;15.27;;;12.70;99.90;;;;;;2096477;28;20082;-69
2021/09/03 01:51:50;;;;;;;19.73;15.40;;;12.70;99.90;;;;;;2096898;28;20086;-69
2021/09/03 01:52:51;;;;;;;18.75;15.93;;;12.80;99.90;;;;;;2096964;28;20040;-69
2021/09/03 01:53:52;;;;;;;18.00;15.77;;;12.70;99.90;;;;;;2097075;28;20039;-68
2021/09/03 01:54:52;;;;;;;21.45;15.27;;;12.70;99.90;;;;;;2096990;28;20024;-69
2021/09/03 01:55:53;;;;;;;20.10;15.95;;;12.70;99.90;;;;;;2088211;28;20025;-69
2021/09/03 01:56:54;;;;;;;20.42;15.77;;;12.70;99.90;;;;;;2088111;28;20033;-69
2021/09/03 01:57:55;;;;;;;19.83;15.88;;;12.70;99.90;;;;;;2096483;28;20062;-69
2021/09/03 01:58:55;;;;;;;20.50;16.02;;;12.70;99.90;;;;;;2097091;28;20389;-69
2021/09/03 01:59:56;;;;;;;20.25;15.82;;;12.70;99.90;;;;;;2096857;28;20047;-69
2021/09/03 02:00:57;;;;;;;20.05;15.68;;;12.70;99.90;;;;;;2097092;28;20393;-69
2021/09/03 02:01:57;;;;;;;20.50;15.48;;;12.70;99.90;;;;;;2088567;28;20025;-69
2021/09/03 02:02:59;;;;;;;19.67;14.77;;;12.70;99.90;;;;;;2088753;28;20096;-69
2021/09/03 02:04:00;;;;;;;19.45;15.07;;;12.70;99.90;;;;;;2097284;28;20032;-69
2021/09/03 02:05:00;;;;;;;19.58;15.05;;;12.60;99.90;;;;;;2096806;28;20024;-69
2021/09/03 02:06:01;;;;;;;19.13;15.93;;;12.60;99.90;;;;;;2096949;28;20040;-69
2021/09/03 02:07:02;;;;;;;19.40;15.25;;;12.60;99.90;;;;;;2096836;28;20021;-69
2021/09/03 02:08:02;;;;;;;18.27;15.10;;;12.70;99.90;;;;;;2096421;28;20028;-69
2021/09/03 02:09:03;;;;;;;19.55;15.13;;;12.70;99.90;;;;;;2087781;28;20044;-69
2021/09/03 02:10:05;;;;;;;20.10;15.77;;;12.60;99.90;;;;;;2087901;28;20104;-69
2021/09/03 02:11:06;;;;;;;19.25;15.45;;;12.60;99.90;;;;;;2096421;28;20027;-69
2021/09/03 02:12:06;;;;;;;18.08;14.88;;;12.60;99.90;;;;;;2096875;28;20067;-69
2021/09/03 02:13:07;;;;;;;19.23;14.98;;;12.60;99.90;;;;;;2096926;28;20434;-69
2021/09/03 02:14:07;;;;;;;19.27;14.95;;;12.60;99.90;;;;;;2096974;28;20094;-69
2021/09/03 02:15:09;;;;;;;19.77;15.50;;;12.60;99.90;;;;;;2096899;28;20056;-69
2021/09/03 02:16:10;;;;;;;20.02;15.38;;;12.60;99.90;;;;;;2096896;28;20032;-69
2021/09/03 02:17:11;;;;;;;19.15;15.07;;;12.60;99.90;;;;;;2087969;28;20028;-70
2021/09/03 02:18:12;;;;;;;19.35;15.82;;;12.60;99.90;;;;;;2087589;28;20033;-69
2021/09/03 02:19:12;;;;;;;21.05;15.70;;;12.60;99.90;;;;;;2088210;28;20041;-70
2021/09/03 02:20:13;;;;;;;18.60;15.43;;;12.60;99.90;;;;;;2087954;28;20064;-69
2021/09/03 02:21:14;;;;;;;20.75;16.10;;;12.60;99.90;;;;;;2088076;28;20036;-69
2021/09/03 02:22:14;;;;;;;19.25;15.57;;;12.60;99.90;;;;;;2088195;28;20132;-69
2021/09/03 02:23:15;;;;;;;19.27;15.50;;;12.60;99.90;;;;;;2096950;28;20036;-70
2021/09/03 02:24:15;;;;;;;18.75;15.35;;;12.50;99.90;;;;;;2097511;28;20107;-69
2021/09/03 02:25:16;;;;;;;23.15;15.95;;;12.50;99.90;;;;;;2097538;28;20031;-69
2021/09/03 02:26:16;;;;;;;22.20;15.40;;;12.50;99.90;;;;;;2097610;28;20048;-69
2021/09/03 02:27:17;;;;;;;19.27;15.60;;;12.50;99.90;;;;;;2097658;28;20028;-70
2021/09/03 02:28:18;;;;;;;18.95;15.20;;;12.40;99.90;;;;;;2088470;28;20496;-70
2021/09/03 02:29:19;;;;;;;18.08;15.00;;;12.40;99.90;;;;;;2088732;28;20017;-70
2021/09/03 02:30:20;;;;;;;19.13;14.90;;;12.50;99.90;;;;;;2097283;28;20039;-69
2021/09/03 02:31:20;;;;;;;20.25;15.68;;;12.40;99.90;;;;;;2096908;28;20029;-69
2021/09/03 02:32:21;;;;;;;18.73;15.05;;;12.40;99.90;;;;;;2096943;28;20067;-69
2021/09/03 02:33:21;;;;;;;19.40;15.20;;;12.40;99.90;;;;;;2087973;28;20616;-69
2021/09/03 02:34:23;;;;;;;17.85;15.02;;;12.40;99.90;;;;;;2088003;28;20029;-69
2021/09/03 02:35:24;;;;;;;17.88;14.90;;;12.40;99.90;;;;;;2096769;28;20106;-69
2021/09/03 02:36:24;;;;;;;19.85;14.82;;;12.40;99.90;;;;;;2087646;28;20029;-69
2021/09/03 02:37:25;;;;;;;20.40;15.13;;;12.40;99.90;;;;;;2088029;28;20110;-69
2021/09/03 02:38:26;;;;;;;20.15;14.68;;;12.40;99.90;;;;;;2096184;28;20022;-69
2021/09/03 02:39:26;;;;;;;19.38;14.93;;;12.40;99.90;;;;;;2096680;28;20096;-69
2021/09/03 02:40:27;;;;;;;21.45;15.45;;;12.40;99.90;;;;;;2096244;28;20032;-69
2021/09/03 02:41:28;;;;;;;20.23;15.43;;;12.40;99.90;;;;;;2096710;28;20067;-70
2021/09/03 02:42:29;;;;;;;18.20;15.30;;;12.40;99.90;;;;;;2096535;28;20467;-69
2021/09/03 02:43:30;;;;;;;18.95;14.70;;;12.30;99.90;;;;;;2096692;28;20036;-70
2021/09/03 02:44:30;;;;;;;18.55;15.40;;;12.40;99.90;;;;;;2096743;28;20047;-70
2021/09/03 02:45:31;;;;;;;18.60;14.98;;;12.30;99.90;;;;;;2096486;28;20092;-69
2021/09/03 02:46:32;;;;;;;18.77;14.75;;;12.30;99.90;;;;;;2087840;28;20028;-69
2021/09/03 02:47:34;;;;;;;17.77;14.15;;;12.30;99.90;;;;;;2087727;28;20025;-68
2021/09/03 02:48:34;;;;;;;18.45;15.10;;;12.30;99.90;;;;;;2096164;28;20032;-68
2021/09/03 02:49:35;;;;;;;15.88;13.77;;;12.30;99.90;;;;;;2096691;28;20080;-69
2021/09/03 02:50:36;;;;;;;17.23;14.23;;;12.30;99.90;;;;;;2096403;28;20115;-68
2021/09/03 02:51:36;;;;;;;19.05;14.63;;;12.30;99.90;;;;;;2096705;28;20020;-68
2021/09/03 02:52:37;;;;;;;19.42;14.23;;;12.30;99.90;;;;;;2096828;28;20530;-69
2021/09/03 02:53:38;;;;;;;19.00;14.77;;;12.30;99.90;;;;;;2096658;28;20038;-68
2021/09/03 02:54:38;;;;;;;18.30;14.70;;;12.20;99.90;;;;;;2096528;28;20029;-68
2021/09/03 02:55:39;;;;;;;16.85;14.32;;;12.30;99.90;;;;;;2087748;28;20037;-69
2021/09/03 02:56:40;;;;;;;19.23;15.30;;;12.20;99.90;;;;;;2087848;28;20061;-69
2021/09/03 02:57:40;;;;;;;18.33;14.25;;;12.20;99.90;;;;;;2097755;28;20032;-69
2021/09/03 02:58:41;;;;;;;18.58;14.45;;;12.20;99.90;;;;;;2097756;28;20029;-68
2021/09/03 02:59:41;;;;;;;18.17;14.65;;;12.20;99.90;;;;;;2098080;28;20043;-68
2021/09/03 03:00:42;;;;;;;17.67;14.57;;;12.20;99.90;;;;;;2097622;28;20038;-69
2021/09/03 03:01:42;;;;;;;18.23;14.48;;;12.20;99.90;;;;;;2097942;28;20074;-68
2021/09/03 03:02:43;;;;;;;17.25;14.38;;;12.20;99.90;;;;;;2098074;28;20040;-69
2021/09/03 03:03:44;;;;;;;17.13;13.82;;;12.20;99.90;;;;;;2098070;28;20039;-69
2021/09/03 03:04:45;;;;;;;18.15;14.55;;;12.20;99.90;;;;;;2098047;28;20070;-68
2021/09/03 03:05:45;;;;;;;15.93;13.60;;;12.20;99.90;;;;;;2098130;28;20037;-69
2021/09/03 03:06:46;;;;;;;17.45;13.85;;;12.20;99.90;;;;;;2098077;28;20032;-69
2021/09/03 03:07:46;;;;;;;17.70;14.20;;;12.20;99.90;;;;;;2097645;28;20021;-69
2021/09/03 03:08:47;;;;;;;16.55;13.75;;;12.20;99.90;;;;;;2097949;28;20044;-69
2021/09/03 03:09:47;;;;;;;18.38;14.45;;;12.20;99.90;;;;;;2097995;28;20119;-69
2021/09/03 03:10:48;;;;;;;17.02;13.90;;;12.20;99.90;;;;;;2097702;28;20024;-69
2021/09/03 03:11:49;;;;;;;17.17;13.98;;;12.30;99.90;;;;;;2098064;28;20029;-69
2021/09/03 03:12:53;;;;;;;18.20;14.50;;;12.30;99.90;;;;;;2098037;28;20040;-69
2021/09/03 03:14:02;;;;;;;17.17;14.23;;;12.30;99.90;;;;;;2089188;28;20717;-69
2021/09/03 03:15:05;;;;;;;18.33;14.70;;;12.30;99.90;;;;;;2090302;28;20037;-69
2021/09/03 03:16:06;;;;;;;19.13;15.18;;;12.30;99.90;;;;;;2097974;28;20035;-69
2021/09/03 03:17:06;;;;;;;19.33;15.02;;;12.30;99.90;;;;;;2089056;28;20100;-69
2021/09/03 03:18:07;;;;;;;18.73;14.98;;;12.30;99.90;;;;;;2088551;28;20027;-69
2021/09/03 03:19:08;;;;;;;18.17;14.52;;;12.30;99.90;;;;;;2097939;28;20032;-69
2021/09/03 03:20:10;;;;;;;16.25;14.02;;;12.30;99.90;;;;;;2098005;28;20113;-69
2021/09/03 03:21:11;;;;;;;18.30;14.00;;;12.30;99.90;;;;;;2097693;28;20085;-69
2021/09/03 03:22:11;;;;;;;17.92;14.05;;;12.30;99.90;;;;;;2097922;28;20078;-68
2021/09/03 03:23:12;;;;;;;16.77;14.20;;;12.30;99.90;;;;;;2098040;28;20021;-68
2021/09/03 03:24:13;;;;;;;18.67;14.10;;;12.30;99.90;;;;;;2097742;28;20024;-69
2021/09/03 03:25:13;;;;;;;17.55;14.70;;;12.30;99.90;;;;;;2097950;28;20025;-68
2021/09/03 03:26:14;;;;;;;17.13;14.18;;;12.30;99.90;;;;;;2098057;28;20048;-69
2021/09/03 03:27:14;;;;;;;16.70;13.88;;;12.30;99.90;;;;;;2097844;28;20032;-68
2021/09/03 03:28:15;;;;;;;18.50;14.40;;;12.30;99.90;;;;;;2088485;28;20496;-69
2021/09/03 03:29:16;;;;;;;18.67;14.50;;;12.30;99.90;;;;;;2080615;28;20128;-69
2021/09/03 03:30:17;;;;;;;17.15;14.18;;;12.30;99.90;;;;;;2088685;28;20052;-68
2021/09/03 03:31:18;;;;;;;18.70;14.48;;;12.30;99.90;;;;;;2097707;28;20060;-68
2021/09/03 03:32:18;;;;;;;18.65;14.68;;;12.30;99.90;;;;;;2097811;28;20541;-68
2021/09/03 03:33:19;;;;;;;20.27;14.77;;;12.30;99.90;;;;;;2097533;28;20126;-68
2021/09/03 03:34:20;;;;;;;18.63;14.80;;;12.30;99.90;;;;;;2097799;28;20021;-68
2021/09/03 03:35:22;;;;;;;19.73;15.20;;;12.30;99.90;;;;;;2097676;28;20036;-68
2021/09/03 03:36:23;;;;;;;19.08;15.02;;;12.20;99.90;;;;;;2097746;28;20025;-68
2021/09/03 03:37:23;;;;;;;18.65;15.20;;;12.30;99.90;;;;;;2097659;28;20036;-68
2021/09/03 03:38:24;;;;;;;19.13;14.85;;;12.20;99.90;;;;;;2097279;28;20028;-69
2021/09/03 03:39:24;;;;;;;18.02;14.60;;;12.20;99.90;;;;;;2097822;28;20032;-68
2021/09/03 03:40:25;;;;;;;19.80;15.40;;;12.20;99.90;;;;;;2097465;28;20078;-68
2021/09/03 03:41:25;;;;;;;18.80;14.98;;;12.20;99.90;;;;;;2097518;28;20036;-68
2021/09/03 03:42:26;;;;;;;18.92;14.93;;;12.20;99.90;;;;;;2097625;28;20028;-68
2021/09/03 03:43:26;;;;;;;17.08;14.30;;;12.20;99.90;;;;;;2097646;28;20028;-68
2021/09/03 03:44:27;;;;;;;15.73;13.82;;;12.20;99.90;;;;;;2097750;28;20055;-68
2021/09/03 03:45:28;;;;;;;18.63;14.80;;;12.20;99.90;;;;;;2097707;28;20028;-68
2021/09/03 03:46:28;;;;;;;18.15;14.48;;;12.20;99.90;;;;;;2097800;28;20119;-68
2021/09/03 03:47:29;;;;;;;19.27;15.20;;;12.20;99.90;;;;;;2097714;28;20140;-68
2021/09/03 03:48:29;;;;;;;19.50;14.85;;;12.10;99.90;;;;;;2097181;28;20026;-68
2021/09/03 03:49:30;;;;;;;19.00;14.63;;;12.10;99.90;;;;;;2097764;28;20040;-67
2021/09/03 03:50:30;;;;;;;18.27;14.88;;;12.10;99.90;;;;;;2097418;28;20032;-68
2021/09/03 03:51:31;;;;;;;17.73;14.45;;;12.10;99.90;;;;;;2088571;28;20111;-68
2021/09/03 03:52:32;;;;;;;17.45;14.73;;;12.10;99.90;;;;;;2088901;28;20024;-68
2021/09/03 03:53:33;;;;;;;18.95;15.18;;;12.10;99.90;;;;;;2097622;28;20063;-68
2021/09/03 03:54:33;;;;;;;19.02;14.93;;;12.10;99.90;;;;;;2097699;28;20043;-68
2021/09/03 03:55:34;;;;;;;17.85;14.57;;;12.10;99.90;;;;;;2080574;28;20056;-68
2021/09/03 03:56:34;;;;;;;18.15;14.68;;;12.00;99.90;;;;;;2080494;28;20112;-68
2021/09/03 03:57:35;;;;;;;20.45;14.60;;;12.00;99.90;;;;;;2097619;28;20116;-68
2021/09/03 03:58:36;;;;;;;17.27;14.27;;;12.00;99.90;;;;;;2097141;28;20033;-68
2021/09/03 03:59:37;;;;;;;19.08;14.77;;;12.00;99.90;;;;;;2088680;28;20069;-68
2021/09/03 04:00:37;;;;;;;18.15;14.35;;;12.00;99.90;;;;;;2080178;28;20108;-68
2021/09/03 04:01:38;;;;;;;19.23;14.45;;;12.00;99.90;;;;;;2088677;28;20025;-68
2021/09/03 04:02:38;;;;;;;17.92;14.07;;;12.00;99.90;;;;;;2097539;28;20745;-69
2021/09/03 04:03:39;;;;;;;17.63;13.95;;;11.90;99.90;;;;;;2097387;28;20040;-69
2021/09/03 04:04:39;;;;;;;17.83;15.10;;;11.90;99.90;;;;;;2097498;28;20102;-70
2021/09/03 04:05:40;;;;;;;18.00;14.73;;;11.90;99.90;;;;;;2097567;28;20021;-71
2021/09/03 04:06:41;;;;;;;17.65;14.10;;;11.90;99.90;;;;;;2097524;28;20754;-70
2021/09/03 04:07:41;;;;;;;17.50;14.05;;;11.90;99.90;;;;;;2097447;28;20127;-70
2021/09/03 04:08:42;;;;;;;18.75;14.90;;;11.90;99.90;;;;;;2096845;28;20102;-69
2021/09/03 04:09:43;;;;;;;19.48;15.20;;;11.90;99.90;;;;;;2088589;28;20552;-69
2021/09/03 04:10:43;;;;;;;19.42;14.13;;;11.90;99.90;;;;;;2088369;28;20032;-69
2021/09/03 04:11:46;;;;;;;19.80;14.18;;;11.90;99.90;;;;;;2097528;28;20039;-69
2021/09/03 04:12:47;;;;;;;18.73;14.52;;;11.90;99.90;;;;;;2097446;28;20024;-69
2021/09/03 04:13:47;;;;;;;18.98;14.70;;;11.90;99.90;;;;;;2097245;28;20024;-69
2021/09/03 04:14:48;;;;;;;17.63;14.48;;;11.90;99.90;;;;;;2097476;28;20513;-69
2021/09/03 04:15:49;;;;;;;18.08;14.88;;;11.90;99.90;;;;;;2097575;28;20380;-69
2021/09/03 04:16:49;;;;;;;18.35;14.38;;;11.90;99.90;;;;;;2097581;28;20090;-69
2021/09/03 04:17:50;;;;;;;18.73;14.50;;;11.90;99.90;;;;;;2097207;28;20032;-70
2021/09/03 04:18:50;;;;;;;18.35;14.57;;;11.90;99.90;;;;;;2097627;28;20028;-68
2021/09/03 04:19:51;;;;;;;17.85;14.32;;;11.90;99.90;;;;;;2097470;28;20037;-68
2021/09/03 04:20:51;;;;;;;19.55;14.88;;;11.80;99.90;;;;;;2088262;28;20025;-69
2021/09/03 04:21:52;;;;;;;16.90;13.75;;;11.90;99.90;;;;;;2088544;28;20539;-69
2021/09/03 04:22:53;;;;;;;17.75;14.40;;;11.80;99.90;;;;;;2097456;28;20108;-69
2021/09/03 04:23:53;;;;;;;19.33;14.48;;;11.80;99.90;;;;;;2097250;28;20867;-69
2021/09/03 04:24:54;;;;;;;17.08;13.88;;;11.80;99.90;;;;;;2097434;28;20017;-69
2021/09/03 04:25:54;;;;;;;19.50;15.15;;;11.80;99.90;;;;;;2097395;28;20036;-68
2021/09/03 04:26:56;;;;;;;17.70;14.35;;;11.80;99.90;;;;;;2097297;28;20104;-67
2021/09/03 04:27:57;;;;;;;18.65;14.27;;;11.80;99.90;;;;;;2096891;28;20116;-67
2021/09/03 04:28:57;;;;;;;18.05;14.38;;;11.80;99.90;;;;;;2097571;28;20025;-66
2021/09/03 04:29:58;;;;;;;18.65;14.75;;;11.80;99.90;;;;;;2097380;28;20103;-67
2021/09/03 04:30:59;;;;;;;20.02;14.45;;;11.80;99.90;;;;;;2097188;28;20033;-67
2021/09/03 04:31:59;;;;;;;17.60;13.70;;;11.80;99.90;;;;;;2097537;28;20753;-67
2021/09/03 04:33:00;;;;;;;18.48;14.00;;;11.80;99.90;;;;;;2097594;28;20388;-67
2021/09/03 04:34:00;;;;;;;18.92;14.50;;;11.80;99.90;;;;;;2097400;28;20485;-69
2021/09/03 04:35:01;;;;;;;19.80;14.60;;;11.80;99.90;;;;;;2097097;28;20024;-70
2021/09/03 04:36:02;;;;;;;18.52;13.63;;;11.80;99.90;;;;;;2097629;28;20094;-70
2021/09/03 04:37:03;;;;;;;17.10;13.80;;;11.80;99.90;;;;;;2097360;28;20027;-70
2021/09/03 04:38:03;;;;;;;16.83;13.77;;;11.90;99.90;;;;;;2088126;28;20074;-69
2021/09/03 04:39:04;;;;;;;17.95;13.95;;;11.90;99.90;;;;;;2088590;28;20088;-70
2021/09/03 04:40:05;;;;;;;17.73;14.15;;;11.90;99.90;;;;;;2097385;28;20433;-70
2021/09/03 04:41:06;;;;;;;18.73;14.07;;;11.90;99.90;;;;;;2097032;28;20376;-69
2021/09/03 04:42:07;;;;;;;18.98;14.43;;;11.90;99.90;;;;;;2097821;28;20044;-70
2021/09/03 04:43:07;;;;;;;17.60;14.02;;;12.00;99.90;;;;;;2100388;28;20112;-69
2021/09/03 04:44:08;;;;;;;18.88;14.10;;;11.90;99.90;;;;;;2099961;28;20021;-67
2021/09/03 04:45:10;;;;;;;17.35;13.63;;;12.00;99.90;;;;;;2100179;28;20071;-67
2021/09/03 04:46:10;;;;;;;18.35;14.38;;;12.00;99.90;;;;;;2098358;28;20028;-70
2021/09/03 04:47:11;;;;;;;16.40;13.27;;;12.00;99.90;;;;;;2097715;28;20029;-67
2021/09/03 04:48:13;;;;;;;16.92;13.57;;;12.00;99.90;;;;;;2097254;28;20052;-68
2021/09/03 04:49:14;;;;;;;17.70;13.52;;;12.00;99.90;;;;;;2097394;28;20016;-68
2021/09/03 04:50:14;;;;;;;16.95;13.18;;;12.10;99.90;;;;;;2088549;28;20033;-71
2021/09/03 04:51:15;;;;;;;15.55;13.27;;;12.10;99.90;;;;;;2088546;28;20107;-68
2021/09/03 04:52:16;;;;;;;17.08;13.60;;;12.10;99.90;;;;;;2097295;28;20484;-68
2021/09/03 04:53:16;;;;;;;18.88;13.52;;;12.10;99.90;;;;;;2088510;28;20064;-68
2021/09/03 04:54:17;;;;;;;18.05;13.27;;;12.10;99.90;;;;;;2080138;28;20473;-68
2021/09/03 04:55:18;;;;;;;15.52;12.90;;;12.10;99.90;;;;;;2088353;28;20029;-66
2021/09/03 04:56:18;;;;;;;17.67;13.57;;;12.20;99.90;;;;;;2097203;28;20032;-67
2021/09/03 04:57:19;;;;;;;16.77;13.40;;;12.20;99.90;;;;;;2097134;28;20033;-67
2021/09/03 04:58:20;;;;;;;15.80;12.95;;;12.20;99.90;;;;;;2079280;28;20029;-67
2021/09/03 04:59:21;;;;;;;14.50;12.48;;;12.20;99.90;;;;;;2080227;28;20052;-66
2021/09/03 05:00:22;;;;;;;15.93;12.75;;;12.20;99.90;;;;;;2096864;28;20047;-66
2021/09/03 05:01:23;;;;;;;15.15;13.13;;;12.20;99.90;;;;;;2096890;28;20044;-66
2021/09/03 05:02:23;;;;;;;17.15;12.88;;;12.20;99.90;;;;;;2097116;28;20044;-67
2021/09/03 05:03:24;;;;;;;15.10;12.73;;;12.20;99.90;;;;;;2097083;28;20020;-67
2021/09/03 05:04:24;;;;;;;16.10;12.80;;;12.30;99.90;;;;;;2097170;28;20025;-66
2021/09/03 05:05:25;;;;;;;15.63;13.07;;;12.30;99.90;;;;;;2097188;28;20028;-68
2021/09/03 05:06:26;;;;;;;14.65;12.20;;;12.30;99.90;;;;;;2088142;28;20070;-67
2021/09/03 05:07:26;;;;;;;14.82;12.50;;;12.30;99.90;;;;;;2079844;28;20029;-67
2021/09/03 05:08:27;;;;;;;14.73;12.50;;;12.30;99.90;;;;;;2079405;28;20163;-66